Time;durP1;ratioP1;P1;durP2;ratioP2;P2;SDS_P1;SDS_P2;PMS_P1;PMS_P2;Temp;Humidity;BMP_temperature;BMP_pressure;BME280_temperature;BME280_humidity;BME280_pressure;Samples;Min_cycle;Max_cycle;Signal;HPM_P1;HPM_P2
2021/11/17 02:27:32;;;;;;;37.95;17.38;;;11.40;83.60;;;;;;5014827;28;20036;-85
2021/11/17 02:30:07;;;;;;;38.50;16.20;;;11.40;83.70;;;;;;5021162;28;20061;-84
2021/11/17 02:32:48;;;;;;;34.35;15.77;;;11.40;83.70;;;;;;5017732;28;20044;-84
2021/11/17 02:35:54;;;;;;;32.42;14.98;;;11.40;83.80;;;;;;5021811;28;20637;-84
2021/11/17 02:38:42;;;;;;;38.15;15.93;;;11.40;83.70;;;;;;5019197;28;20107;-84
2021/11/17 02:41:08;;;;;;;38.05;14.82;;;11.40;83.80;;;;;;5020420;28;20087;-84
2021/11/17 02:43:52;;;;;;;29.45;14.13;;;11.40;84.10;;;;;;5018946;28;20104;-84
2021/11/17 02:46:46;;;;;;;32.53;15.82;;;11.30;84.10;;;;;;5021841;28;20128;-84
2021/11/17 02:49:41;;;;;;;28.50;13.48;;;11.40;84.00;;;;;;5019686;28;20041;-84
2021/11/17 02:52:15;;;;;;;31.05;13.02;;;11.30;84.00;;;;;;5022391;28;20515;-84
2021/11/17 02:54:47;;;;;;;26.17;13.15;;;11.30;84.40;;;;;;5019974;28;20057;-85
2021/11/17 02:57:39;;;;;;;34.70;13.65;;;11.40;84.20;;;;;;5022637;28;20575;-84
2021/11/17 03:00:13;;;;;;;31.52;12.98;;;11.40;84.10;;;;;;5018618;28;20042;-84
2021/11/17 03:02:51;;;;;;;23.67;11.52;;;11.40;84.10;;;;;;5022545;28;20032;-84
2021/11/17 03:05:26;;;;;;;30.25;13.15;;;11.40;84.10;;;;;;5030040;28;20025;-84
2021/11/17 03:08:34;;;;;;;23.27;11.98;;;11.40;84.00;;;;;;5053903;28;20477;-84
2021/11/17 03:11:21;;;;;;;29.20;13.02;;;11.40;84.10;;;;;;5053563;28;20098;-85
2021/11/17 03:14:28;;;;;;;30.20;12.20;;;11.40;84.10;;;;;;5020511;28;20049;-84
2021/11/17 03:17:12;;;;;;;26.45;13.15;;;11.40;84.10;;;;;;5016114;28;20113;-84
2021/11/17 03:19:54;;;;;;;21.98;11.10;;;11.40;84.00;;;;;;5021290;28;20092;-84
2021/11/17 03:22:29;;;;;;;27.02;11.98;;;11.50;83.90;;;;;;5031950;28;20034;-84
2021/11/17 03:25:33;;;;;;;25.73;12.77;;;11.50;83.80;;;;;;5039028;28;20033;-83
2021/11/17 03:28:38;;;;;;;23.52;11.40;;;11.50;83.90;;;;;;5018248;28;20048;-84
2021/11/17 03:31:09;;;;;;;31.42;11.63;;;11.50;84.00;;;;;;5020528;28;20041;-84
2021/11/17 03:33:41;;;;;;;23.17;11.45;;;11.40;84.10;;;;;;5030199;28;20033;-84
2021/11/17 03:36:29;;;;;;;26.23;12.18;;;11.40;84.10;;;;;;5037312;28;20045;-84
2021/11/17 03:39:18;;;;;;;26.55;12.63;;;11.50;84.00;;;;;;5027617;28;20029;-84
2021/11/17 03:42:05;;;;;;;22.73;11.43;;;11.40;83.90;;;;;;5017544;28;20413;-84
2021/11/17 03:44:44;;;;;;;25.75;10.98;;;11.40;84.00;;;;;;5019136;28;20453;-84
2021/11/17 03:47:31;;;;;;;25.55;11.57;;;11.40;83.90;;;;;;5016516;28;20029;-84
2021/11/17 03:50:15;;;;;;;29.17;12.32;;;11.30;83.90;;;;;;5002941;28;20109;-84
2021/11/17 03:53:05;;;;;;;27.45;12.10;;;11.30;84.00;;;;;;5017546;28;20189;-85
2021/11/17 03:55:49;;;;;;;;;;;11.20;84.10;;;;;;5021070;28;20393;-84
2021/11/17 03:58:26;;;;;;;24.20;11.27;;;11.20;84.20;;;;;;5027629;28;19909;-84
2021/11/17 04:01:20;;;;;;;24.65;11.40;;;11.30;84.10;;;;;;5038525;28;20025;-85
2021/11/17 04:03:52;;;;;;;26.40;12.00;;;11.30;84.10;;;;;;5017401;28;20563;-84
2021/11/17 04:06:43;;;;;;;30.58;12.32;;;11.20;84.20;;;;;;5023970;28;20674;-84
2021/11/17 04:09:08;;;;;;;28.77;12.93;;;11.20;84.30;;;;;;5052820;28;20033;-84
2021/11/17 04:11:50;;;;;;;23.25;10.88;;;11.10;84.50;;;;;;5020498;28;20412;-84
2021/11/17 04:14:57;;;;;;;28.25;12.10;;;11.10;84.70;;;;;;5017150;28;20113;-85
2021/11/17 04:17:40;;;;;;;27.60;11.63;;;11.00;84.60;;;;;;5018196;28;20026;-84
2021/11/17 04:20:28;;;;;;;31.02;12.70;;;11.00;84.80;;;;;;5017282;28;20038;-84
2021/11/17 04:23:05;;;;;;;26.38;11.68;;;11.10;84.80;;;;;;5039439;28;20037;-84
2021/11/17 04:26:08;;;;;;;30.13;13.68;;;11.20;84.60;;;;;;5030115;28;20029;-85
2021/11/17 04:28:51;;;;;;;23.92;12.15;;;11.20;84.40;;;;;;5019930;28;20109;-84
2021/11/17 04:32:01;;;;;;;27.13;12.65;;;11.20;84.50;;;;;;5016844;28;20022;-84
2021/11/17 04:34:41;;;;;;;29.42;11.93;;;11.10;84.60;;;;;;5016675;28;20500;-84
2021/11/17 04:37:13;;;;;;;28.70;11.82;;;11.20;84.40;;;;;;5014377;28;20037;-84
2021/11/17 04:39:56;;;;;;;26.75;11.18;;;11.20;84.50;;;;;;5018593;28;20050;-84
2021/11/17 04:42:46;;;;;;;20.67;10.95;;;11.10;84.20;;;;;;5016594;28;20048;-84
2021/11/17 04:45:42;;;;;;;22.02;11.50;;;11.00;84.30;;;;;;5019481;28;20026;-84
2021/11/17 04:48:56;;;;;;;25.85;10.88;;;11.10;84.50;;;;;;5016679;28;20018;-84
2021/11/17 04:51:34;;;;;;;22.42;10.13;;;11.00;84.20;;;;;;5033444;28;20114;-84
2021/11/17 04:54:20;;;;;;;24.23;10.95;;;10.90;84.10;;;;;;5016656;28;20029;-85
2021/11/17 04:57:21;;;;;;;24.00;10.43;;;10.80;84.10;;;;;;5018250;28;20026;-83
2021/11/17 04:59:55;;;;;;;23.55;10.82;;;10.70;83.80;;;;;;5018831;28;20125;-84
2021/11/17 05:02:45;;;;;;;22.55;10.35;;;10.70;84.00;;;;;;5018819;28;20036;-85
2021/11/17 05:05:35;;;;;;;25.88;11.50;;;10.60;84.00;;;;;;5016290;28;20030;-85
2021/11/17 05:08:31;;;;;;;28.85;11.30;;;10.50;84.10;;;;;;5052081;28;20025;-85
2021/11/17 05:11:16;;;;;;;27.88;11.60;;;10.50;84.00;;;;;;5055534;28;20052;-84
2021/11/17 05:13:42;;;;;;;20.88;9.82;;;10.40;84.30;;;;;;5034820;28;20551;-85
2021/11/17 05:16:45;;;;;;;24.65;11.13;;;10.40;84.20;;;;;;5015908;28;20030;-84
2021/11/17 05:19:17;;;;;;;25.38;10.20;;;10.30;84.20;;;;;;5019017;28;20113;-85
2021/11/17 05:21:48;;;;;;;27.75;11.07;;;10.30;84.10;;;;;;5014591;28;20041;-84
2021/11/17 05:24:51;;;;;;;27.65;11.15;;;10.30;83.90;;;;;;5016099;28;20018;-84
2021/11/17 05:28:01;;;;;;;27.83;10.90;;;10.20;83.90;;;;;;5014583;28;20397;-84
2021/11/17 05:31:04;;;;;;;24.48;12.15;;;10.20;84.20;;;;;;5016913;28;20044;-84
2021/11/17 05:33:51;;;;;;;27.95;12.15;;;10.20;84.20;;;;;;5027459;28;20045;-84
2021/11/17 05:36:32;;;;;;;32.22;12.80;;;10.20;84.40;;;;;;5018790;28;20022;-84
2021/11/17 05:39:08;;;;;;;;;;;10.20;84.30;;;;;;5016128;28;20129;-84
2021/11/17 05:41:41;;;;;;;24.20;10.52;;;10.20;84.10;;;;;;5016536;28;20463;-85
2021/11/17 05:44:28;;;;;;;20.75;10.40;;;10.20;84.10;;;;;;5022861;28;20096;-84
2021/11/17 05:47:42;;;;;;;;;;;;;;;;;;;;;
2021/11/17 05:50:49;;;;;;;26.15;11.27;;;10.20;84.20;;;;;;5015452;28;20101;-80
2021/11/17 05:56:29;;;;;;;27.75;10.82;;;10.20;84.30;;;;;;5065892;28;20822;-87
2021/11/17 05:59:13;;;;;;;30.88;12.98;;;10.10;84.60;;;;;;5052363;28;20026;-84
2021/11/17 06:01:48;;;;;;;25.38;12.48;;;10.10;84.70;;;;;;5065678;28;20022;-90
2021/11/17 06:04:22;;;;;;;30.50;13.20;;;10.20;84.50;;;;;;5052243;28;20555;-89
2021/11/17 06:06:47;;;;;;;24.17;12.40;;;10.30;85.10;;;;;;5063479;28;20503;-91
2021/11/17 06:09:13;;;;;;;27.50;11.95;;;10.20;84.50;;;;;;5068063;28;20083;-83
2021/11/17 06:11:39;;;;;;;29.40;12.18;;;10.20;84.40;;;;;;5053202;28;20079;-84
2021/11/17 06:14:07;;;;;;;20.58;9.48;;;10.20;84.30;;;;;;5066938;28;20083;-80
2021/11/17 06:16:48;;;;;;;26.15;11.45;;;10.20;84.20;;;;;;5068591;28;20028;-84
2021/11/17 06:19:37;;;;;;;20.80;9.88;;;10.20;84.20;;;;;;5069032;28;20606;-87
2021/11/17 06:22:05;;;;;;;26.73;11.23;;;10.10;83.90;;;;;;5074821;28;20025;-87
2021/11/17 06:24:33;;;;;;;26.48;12.15;;;10.10;84.00;;;;;;5070033;28;20116;-82
2021/11/17 06:27:12;;;;;;;24.08;10.98;;;10.00;83.90;;;;;;5064467;28;20080;-80
2021/11/17 06:29:42;;;;;;;18.50;9.65;;;10.00;83.70;;;;;;5052166;28;20028;-81
2021/11/17 06:32:09;;;;;;;25.15;10.43;;;10.00;83.50;;;;;;5059283;28;20119;-81
2021/11/17 06:34:39;;;;;;;25.15;10.23;;;10.10;83.40;;;;;;5056254;28;20032;-81
2021/11/17 06:37:08;;;;;;;24.73;9.65;;;10.00;83.40;;;;;;5069504;28;20106;-81
2021/11/17 06:39:38;;;;;;;24.30;11.02;;;10.20;83.80;;;;;;5067209;28;20116;-80
2021/11/17 06:42:06;;;;;;;;;;;10.20;83.80;;;;;;5070813;28;20021;-81
2021/11/17 06:44:34;;;;;;;21.02;10.02;;;10.20;83.60;;;;;;5068337;28;20740;-79
2021/11/17 06:47:00;;;;;;;22.95;10.70;;;10.20;83.60;;;;;;5065957;28;20075;-82
2021/11/17 06:49:26;;;;;;;23.35;10.88;;;10.20;83.90;;;;;;5068723;28;20017;-82
2021/11/17 06:51:52;;;;;;;24.35;10.30;;;10.20;83.80;;;;;;5069203;28;20506;-81
2021/11/17 06:54:48;;;;;;;;;;;;;;;;;;;;;
2021/11/17 06:57:15;;;;;;;20.50;9.60;;;10.30;83.50;;;;;;5070512;28;20120;-86
2021/11/17 06:59:54;;;;;;;;;;;;;;;;;;;;;
2021/11/17 07:02:57;;;;;;;26.97;9.97;;;10.30;83.60;;;;;;5071293;28;20084;-85
2021/11/17 07:05:57;;;;;;;21.75;10.40;;;10.40;84.40;;;;;;5061848;28;20291;-85
2021/11/17 07:08:56;;;;;;;20.83;9.35;;;10.40;84.00;;;;;;5058946;28;20382;-86
2021/11/17 07:11:38;;;;;;;17.23;8.40;;;10.50;84.10;;;;;;5050795;28;20442;-85
2021/11/17 07:14:33;;;;;;;18.35;8.82;;;10.60;84.20;;;;;;5056705;28;20036;-85
2021/11/17 07:17:15;;;;;;;;;;;;;;;;;;;;;
2021/11/17 07:19:44;;;;;;;22.25;7.97;;;10.70;84.00;;;;;;5057755;28;20027;-85
2021/11/17 07:22:18;;;;;;;14.90;7.95;;;10.70;84.00;;;;;;5054978;28;20088;-85
2021/11/17 07:24:58;;;;;;;18.27;8.68;;;10.70;84.00;;;;;;5055634;28;20025;-85
2021/11/17 07:27:38;;;;;;;17.92;8.40;;;10.70;84.20;;;;;;5052828;28;20029;-85
2021/11/17 07:30:33;;;;;;;20.95;8.68;;;10.70;84.00;;;;;;5053281;28;20025;-84
2021/11/17 07:33:07;;;;;;;15.38;7.72;;;10.70;84.00;;;;;;5052486;28;20115;-85
2021/11/17 07:35:48;;;;;;;17.00;7.53;;;10.80;83.80;;;;;;5056657;28;20056;-85
2021/11/17 07:38:26;;;;;;;;;;;;;;;;;;;;;
2021/11/17 07:40:53;;;;;;;17.48;8.40;;;10.80;83.90;;;;;;5055216;28;20035;-81
2021/11/17 07:43:21;;;;;;;15.90;7.53;;;10.90;83.70;;;;;;5049871;28;20052;-81
2021/11/17 07:45:48;;;;;;;16.58;8.18;;;10.90;83.60;;;;;;5056471;28;20029;-81
2021/11/17 07:48:16;;;;;;;12.68;7.30;;;10.90;83.80;;;;;;5053992;28;20056;-80
2021/11/17 07:50:44;;;;;;;16.77;8.52;;;10.90;83.80;;;;;;5055287;28;20040;-81
2021/11/17 07:53:11;;;;;;;15.73;8.25;;;11.00;83.80;;;;;;5055035;28;20026;-81
2021/11/17 07:55:39;;;;;;;16.30;8.50;;;11.00;83.90;;;;;;5045620;28;20598;-81
2021/11/17 07:58:07;;;;;;;14.55;8.15;;;11.00;83.70;;;;;;5054349;28;20039;-81
2021/11/17 08:00:33;;;;;;;14.80;7.65;;;11.00;83.80;;;;;;5056113;28;20029;-81
2021/11/17 08:03:01;;;;;;;16.48;7.68;;;11.00;84.00;;;;;;5053140;28;20030;-81
2021/11/17 08:05:27;;;;;;;16.60;7.93;;;11.10;84.00;;;;;;5036458;28;20033;-81
2021/11/17 08:07:54;;;;;;;16.75;8.63;;;11.10;83.90;;;;;;5067768;28;20024;-81
2021/11/17 08:10:23;;;;;;;13.98;8.18;;;11.10;84.00;;;;;;5076665;28;20571;-81
2021/11/17 08:12:49;;;;;;;18.08;9.45;;;11.20;83.90;;;;;;5064992;28;20092;-81
2021/11/17 08:15:14;;;;;;;24.60;10.98;;;11.10;84.10;;;;;;5036539;28;20060;-81
2021/11/17 08:17:41;;;;;;;17.30;9.90;;;11.20;84.10;;;;;;5035130;28;20065;-81
2021/11/17 08:20:13;;;;;;;19.08;9.23;;;11.20;84.00;;;;;;5036842;28;20097;-80
2021/11/17 08:22:44;;;;;;;15.80;8.93;;;11.20;84.10;;;;;;5036462;28;20033;-81
2021/11/17 08:25:12;;;;;;;16.33;8.07;;;11.20;84.20;;;;;;5036431;28;20041;-81
2021/11/17 08:27:38;;;;;;;14.57;7.35;;;11.30;84.30;;;;;;5036468;28;20017;-81
2021/11/17 08:30:08;;;;;;;16.98;8.13;;;11.30;84.20;;;;;;5036107;28;20560;-81
2021/11/17 08:32:34;;;;;;;18.23;7.65;;;11.40;83.70;;;;;;5036275;28;20040;-81
2021/11/17 08:34:59;;;;;;;15.48;8.50;;;11.40;83.90;;;;;;5035663;28;20033;-81
2021/11/17 08:37:25;;;;;;;14.85;7.85;;;11.50;84.00;;;;;;5034896;28;20034;-81
2021/11/17 08:39:53;;;;;;;15.10;7.63;;;11.60;83.70;;;;;;5036088;28;20460;-81
2021/11/17 08:42:20;;;;;;;18.63;7.55;;;11.60;83.40;;;;;;5036330;28;20029;-81
2021/11/17 08:44:45;;;;;;;12.32;7.75;;;11.70;83.60;;;;;;5055011;28;20033;-80
2021/11/17 08:47:13;;;;;;;14.30;7.60;;;11.80;83.40;;;;;;5055922;28;20078;-81
2021/11/17 08:49:39;;;;;;;18.75;7.00;;;11.70;84.00;;;;;;5052706;28;20032;-81
2021/11/17 08:52:06;;;;;;;14.32;7.38;;;11.80;83.60;;;;;;5054236;28;20036;-81
2021/11/17 08:54:33;;;;;;;14.13;7.85;;;11.80;83.60;;;;;;5052506;28;20053;-81
2021/11/17 08:57:00;;;;;;;13.65;7.53;;;11.80;83.40;;;;;;5055913;28;20021;-81
2021/11/17 08:59:26;;;;;;;15.63;7.55;;;11.90;83.50;;;;;;5055581;28;20617;-81
2021/11/17 09:01:56;;;;;;;13.40;6.93;;;12.10;83.10;;;;;;5054220;28;20044;-81
2021/11/17 09:04:22;;;;;;;11.02;6.80;;;12.50;82.70;;;;;;5055491;28;20093;-81
2021/11/17 09:06:48;;;;;;;12.07;6.43;;;12.80;81.90;;;;;;5056181;28;20407;-81
2021/11/17 09:09:14;;;;;;;11.63;5.85;;;12.80;81.90;;;;;;5054240;28;20031;-81
2021/11/17 09:11:41;;;;;;;9.27;5.53;;;12.80;81.90;;;;;;5055369;28;20028;-81
2021/11/17 09:14:07;;;;;;;9.70;5.88;;;12.90;81.50;;;;;;5055356;28;20410;-81
2021/11/17 09:16:34;;;;;;;10.35;5.45;;;13.00;81.40;;;;;;5041181;28;20091;-81
2021/11/17 09:19:03;;;;;;;10.52;5.55;;;13.00;81.70;;;;;;5035444;28;20108;-81
2021/11/17 09:21:32;;;;;;;9.43;4.78;;;13.00;81.30;;;;;;5035358;28;20079;-81
2021/11/17 09:23:57;;;;;;;11.60;5.82;;;13.10;81.20;;;;;;5034869;28;20474;-81
2021/11/17 09:26:24;;;;;;;7.90;4.65;;;13.10;81.30;;;;;;5035384;28;20105;-81
2021/11/17 09:28:52;;;;;;;9.23;4.93;;;12.90;81.70;;;;;;5034975;28;20021;-81
2021/11/17 09:31:18;;;;;;;14.70;5.70;;;12.80;81.70;;;;;;5035029;28;20030;-81
2021/11/17 09:33:46;;;;;;;9.50;5.53;;;12.80;82.10;;;;;;5033914;28;20090;-81
2021/11/17 09:36:16;;;;;;;8.55;5.18;;;12.80;82.20;;;;;;5035419;28;20029;-81
2021/11/17 09:38:42;;;;;;;10.23;4.73;;;12.70;82.70;;;;;;5035220;28;20479;-81
2021/11/17 09:41:12;;;;;;;7.75;4.55;;;12.80;82.60;;;;;;5035172;28;20283;-81
2021/11/17 09:43:46;;;;;;;9.10;4.88;;;12.80;82.50;;;;;;5044877;28;20562;-81
2021/11/17 09:46:14;;;;;;;9.63;4.55;;;12.80;82.50;;;;;;5054963;28;20116;-81
2021/11/17 09:48:44;;;;;;;11.35;5.18;;;12.80;82.50;;;;;;5054835;28;20033;-81
2021/11/17 09:51:18;;;;;;;10.15;4.60;;;12.80;82.50;;;;;;5049487;28;20117;-81
2021/11/17 09:54:09;;;;;;;8.32;5.07;;;12.90;82.20;;;;;;5050179;28;20108;-80
2021/11/17 09:56:57;;;;;;;10.63;5.15;;;12.90;82.30;;;;;;5035130;28;20170;-81
2021/11/17 09:59:33;;;;;;;7.95;4.80;;;13.10;82.30;;;;;;5034973;28;20026;-81
2021/11/17 10:02:09;;;;;;;10.10;5.13;;;13.20;82.00;;;;;;5035138;28;20442;-81
2021/11/17 10:04:40;;;;;;;10.32;4.97;;;13.20;82.00;;;;;;5034835;28;20068;-81
2021/11/17 10:12:59;;;;;;;8.55;4.75;;;13.60;81.30;;;;;;5034874;28;20038;-81
2021/11/17 10:15:30;;;;;;;7.88;4.95;;;13.50;81.40;;;;;;5034551;28;20028;-80
2021/11/17 10:18:31;;;;;;;8.77;5.03;;;13.50;81.70;;;;;;5050026;28;20101;-81
2021/11/17 10:21:01;;;;;;;;;;;13.50;81.90;;;;;;5035170;28;20734;-81
2021/11/17 10:23:31;;;;;;;8.00;4.82;;;13.70;81.50;;;;;;5034772;28;19919;-81
2021/11/17 10:26:04;;;;;;;7.93;4.60;;;13.70;81.30;;;;;;5046281;28;20039;-81
2021/11/17 10:28:36;;;;;;;7.63;4.82;;;13.80;81.10;;;;;;5054246;28;20036;-81
2021/11/17 10:31:09;;;;;;;11.10;4.93;;;13.80;80.70;;;;;;5053370;28;20082;-80
2021/11/17 10:34:08;;;;;;;7.00;4.65;;;14.00;80.80;;;;;;5034749;28;20032;-81
2021/11/17 10:36:58;;;;;;;8.35;5.60;;;14.20;80.50;;;;;;5044633;28;20388;-81
2021/11/17 10:39:39;;;;;;;6.43;5.10;;;14.30;80.30;;;;;;5034548;28;20563;-81
2021/11/17 10:42:04;;;;;;;7.03;4.32;;;14.30;79.90;;;;;;5036911;28;20032;-81
2021/11/17 10:44:35;;;;;;;9.68;4.32;;;14.40;79.90;;;;;;5053967;28;20555;-81
2021/11/17 10:47:27;;;;;;;8.80;5.03;;;14.30;79.60;;;;;;5057753;28;20017;-81
2021/11/17 10:49:52;;;;;;;8.63;4.78;;;14.20;79.90;;;;;;5033540;28;20405;-81
2021/11/17 10:52:49;;;;;;;16.80;5.68;;;14.20;80.20;;;;;;5038216;28;20072;-81
2021/11/17 10:55:29;;;;;;;6.90;4.70;;;14.20;80.40;;;;;;5037998;28;20550;-80
2021/11/17 10:57:54;;;;;;;10.23;4.90;;;14.20;80.10;;;;;;5038232;28;20029;-81
2021/11/17 11:00:29;;;;;;;6.20;4.70;;;14.20;80.20;;;;;;5037712;28;20037;-82
2021/11/17 11:02:56;;;;;;;7.72;5.43;;;14.20;80.60;;;;;;5037863;28;20515;-81
2021/11/17 11:05:26;;;;;;;9.50;5.38;;;14.10;80.60;;;;;;5037426;28;20084;-81
2021/11/17 11:08:19;;;;;;;10.45;6.35;;;14.20;80.80;;;;;;5068753;28;20016;-81
2021/11/17 11:10:52;;;;;;;10.35;4.85;;;14.20;80.70;;;;;;5064057;28;20523;-81
2021/11/17 11:13:28;;;;;;;8.00;4.78;;;14.30;80.40;;;;;;5057742;28;20024;-81
2021/11/17 11:15:59;;;;;;;9.65;4.88;;;14.40;80.00;;;;;;5057618;28;20107;-81
2021/11/17 11:18:28;;;;;;;6.15;4.25;;;14.30;80.20;;;;;;5057578;28;20032;-82
2021/11/17 11:20:57;;;;;;;6.15;4.57;;;14.40;80.00;;;;;;5040389;28;20171;-81
2021/11/17 11:23:37;;;;;;;6.18;3.67;;;14.50;80.20;;;;;;5037441;28;20025;-81
2021/11/17 11:26:03;;;;;;;5.35;4.13;;;14.60;80.10;;;;;;5037338;28;20061;-82
2021/11/17 11:28:43;;;;;;;5.80;4.05;;;14.70;79.20;;;;;;5037577;28;20071;-81
2021/11/17 11:31:09;;;;;;;4.93;4.00;;;14.80;79.00;;;;;;5036009;28;20133;-81
2021/11/17 11:33:53;;;;;;;8.07;3.97;;;14.70;79.20;;;;;;5037369;28;20021;-81
2021/11/17 11:36:22;;;;;;;8.13;3.75;;;14.50;79.90;;;;;;5037423;28;20045;-81
2021/11/17 11:39:11;;;;;;;6.95;3.53;;;14.60;80.10;;;;;;5037395;28;20022;-81
2021/11/17 11:42:14;;;;;;;7.10;3.40;;;14.80;79.60;;;;;;5039074;28;20057;-81
2021/11/17 11:44:42;;;;;;;9.70;3.95;;;14.80;79.70;;;;;;5053822;28;20078;-81
2021/11/17 11:47:11;;;;;;;5.00;3.35;;;14.90;79.20;;;;;;5056909;28;20017;-81
2021/11/17 11:49:44;;;;;;;4.95;3.42;;;14.80;79.20;;;;;;5055760;28;20033;-81
2021/11/17 11:52:13;;;;;;;5.45;3.33;;;14.80;79.70;;;;;;5055600;28;20048;-82
2021/11/17 11:54:54;;;;;;;8.50;3.35;;;14.80;79.90;;;;;;5056839;28;20866;-82
2021/11/17 11:57:46;;;;;;;8.43;4.22;;;14.80;81.20;;;;;;5054066;28;20033;-78
2021/11/17 12:00:20;;;;;;;4.28;3.10;;;14.90;81.10;;;;;;5056809;28;20581;-81
2021/11/17 12:02:46;;;;;;;8.02;3.40;;;15.00;80.70;;;;;;5050167;28;20037;-81
2021/11/17 12:05:28;;;;;;;4.75;3.17;;;15.20;80.50;;;;;;5036682;28;20415;-81
2021/11/17 12:07:57;;;;;;;5.95;3.00;;;15.10;80.90;;;;;;5065426;28;20545;-80
2021/11/17 12:10:36;;;;;;;5.80;3.17;;;15.10;80.60;;;;;;5068648;28;20084;-81
2021/11/17 12:13:12;;;;;;;4.50;2.67;;;15.20;80.20;;;;;;5036696;28;20053;-81
2021/11/17 12:15:40;;;;;;;9.20;3.20;;;15.30;80.30;;;;;;5035220;28;20041;-81
2021/11/17 12:18:18;;;;;;;4.90;2.95;;;15.20;80.10;;;;;;5035268;28;20040;-81
2021/11/17 12:21:06;;;;;;;5.30;3.05;;;15.30;80.30;;;;;;5036310;28;20395;-81
2021/11/17 12:23:36;;;;;;;8.98;3.05;;;15.40;80.00;;;;;;5034797;28;20113;-81
2021/11/17 12:26:10;;;;;;;5.55;2.67;;;15.60;78.90;;;;;;5036476;28;20033;-81
2021/11/17 12:28:58;;;;;;;5.60;2.67;;;15.80;79.00;;;;;;5036259;28;20033;-81
2021/11/17 12:31:29;;;;;;;5.97;2.92;;;15.80;78.30;;;;;;5036281;28;20022;-81
2021/11/17 12:34:19;;;;;;;6.30;3.15;;;15.90;78.10;;;;;;5036139;28;20033;-81
2021/11/17 12:37:01;;;;;;;3.67;2.15;;;15.80;78.60;;;;;;5033186;28;20061;-81
2021/11/17 12:39:48;;;;;;;5.55;2.67;;;15.90;77.60;;;;;;5036320;28;20067;-81
2021/11/17 12:42:14;;;;;;;3.92;2.05;;;15.80;77.50;;;;;;5036086;28;20049;-81
2021/11/17 12:44:44;;;;;;;3.03;1.83;;;15.80;77.40;;;;;;5051968;28;20112;-81
2021/11/17 12:47:15;;;;;;;2.92;1.92;;;15.80;76.80;;;;;;5035966;28;20396;-81
2021/11/17 12:49:46;;;;;;;3.25;1.63;;;15.90;76.20;;;;;;5035933;28;20080;-81
2021/11/17 12:52:23;;;;;;;3.67;2.28;;;15.90;76.50;;;;;;5036061;28;20088;-81
2021/11/17 12:54:58;;;;;;;3.17;1.90;;;16.00;75.90;;;;;;5035657;28;20124;-81
2021/11/17 12:57:31;;;;;;;5.05;2.38;;;16.00;76.40;;;;;;5035191;28;20447;-81
2021/11/17 13:00:11;;;;;;;4.78;1.95;;;15.90;75.50;;;;;;5035842;28;20141;-81
2021/11/17 13:03:07;;;;;;;3.15;1.77;;;15.80;76.40;;;;;;5035668;28;20100;-81
2021/11/17 13:05:37;;;;;;;4.68;1.80;;;15.80;75.60;;;;;;5035166;28;20510;-81
2021/11/17 13:08:02;;;;;;;4.15;1.52;;;15.80;76.00;;;;;;5069307;28;20094;-81
2021/11/17 13:10:41;;;;;;;3.60;1.65;;;15.90;75.10;;;;;;5036944;28;20029;-80
2021/11/17 13:13:38;;;;;;;3.97;1.80;;;16.10;75.50;;;;;;5035521;28;20021;-81
2021/11/17 13:16:19;;;;;;;4.28;1.65;;;16.20;73.80;;;;;;5035368;28;20026;-81
2021/11/17 13:18:45;;;;;;;3.38;1.40;;;16.20;73.80;;;;;;5035191;28;20199;-80
2021/11/17 13:21:23;;;;;;;6.60;1.48;;;16.20;74.00;;;;;;5035439;28;20061;-81
2021/11/17 13:24:27;;;;;;;5.07;1.15;;;16.20;73.40;;;;;;5042271;28;20051;-79
2021/11/17 13:27:13;;;;;;;1.92;1.00;;;16.00;74.20;;;;;;5055243;28;20044;-80
2021/11/17 13:29:59;;;;;;;2.70;1.02;;;15.80;74.30;;;;;;5047886;28;20033;-82
2021/11/17 13:32:30;;;;;;;1.85;0.85;;;15.50;74.00;;;;;;5034981;28;20032;-81
2021/11/17 13:34:59;;;;;;;0.90;0.60;;;15.50;74.60;;;;;;5035466;28;20124;-81
2021/11/17 13:37:38;;;;;;;1.70;0.43;;;15.40;75.10;;;;;;5044135;28;20033;-81
2021/11/17 13:40:08;;;;;;;1.65;0.68;;;15.30;75.30;;;;;;5063564;28;20526;-81
2021/11/17 13:42:35;;;;;;;1.98;1.02;;;15.30;75.40;;;;;;5056938;28;20025;-82
2021/11/17 13:45:15;;;;;;;2.17;0.80;;;15.30;75.00;;;;;;5049815;28;20035;-81
2021/11/17 13:47:41;;;;;;;2.83;1.05;;;15.30;75.10;;;;;;5053226;28;20072;-82
2021/11/17 13:50:09;;;;;;;4.65;1.00;;;15.30;75.70;;;;;;5050048;28;20536;-82
2021/11/17 13:52:39;;;;;;;3.80;0.70;;;15.60;75.20;;;;;;5034424;28;20132;-82
2021/11/17 13:55:08;;;;;;;5.87;1.10;;;15.80;74.60;;;;;;5034570;28;20105;-81
2021/11/17 13:57:34;;;;;;;6.40;0.98;;;16.00;74.00;;;;;;5034802;28;20037;-82
2021/11/17 14:00:00;;;;;;;5.53;1.10;;;16.00;74.00;;;;;;5034471;28;20072;-82
2021/11/17 14:02:26;;;;;;;4.47;1.40;;;15.80;73.00;;;;;;5034451;28;20026;-81
2021/11/17 14:04:52;;;;;;;3.25;1.15;;;15.80;72.00;;;;;;5034558;28;20079;-81
2021/11/17 14:07:21;;;;;;;7.18;1.10;;;15.80;73.20;;;;;;5056022;28;20032;-82
2021/11/17 14:09:47;;;;;;;2.90;0.98;;;15.80;73.70;;;;;;5074355;28;20503;-82
2021/11/17 14:12:14;;;;;;;6.88;1.35;;;15.80;72.20;;;;;;5052139;28;20478;-82
2021/11/17 14:14:40;;;;;;;5.10;1.10;;;15.80;73.20;;;;;;5041695;28;20025;-81
2021/11/17 14:17:07;;;;;;;4.20;1.48;;;15.80;72.90;;;;;;5054134;28;20052;-82
2021/11/17 14:19:34;;;;;;;11.00;2.33;;;15.80;72.60;;;;;;5057451;28;20574;-81
2021/11/17 14:22:00;;;;;;;6.82;1.50;;;15.60;73.00;;;;;;5057125;28;20047;-81
2021/11/17 14:24:26;;;;;;;5.68;1.23;;;15.50;72.70;;;;;;5058224;28;20442;-81
2021/11/17 14:26:52;;;;;;;5.57;1.90;;;15.50;72.90;;;;;;5057959;28;20070;-81
2021/11/17 14:29:35;;;;;;;10.80;2.10;;;15.40;73.40;;;;;;5056101;28;20394;-81
2021/11/17 14:32:07;;;;;;;6.82;1.88;;;15.50;73.90;;;;;;5047681;28;20487;-81
2021/11/17 14:34:32;;;;;;;6.82;1.45;;;15.50;72.80;;;;;;5055122;28;20021;-81
2021/11/17 14:37:04;;;;;;;3.75;1.40;;;15.50;72.70;;;;;;5055730;28;20520;-80
2021/11/17 14:39:31;;;;;;;4.32;1.73;;;15.60;73.30;;;;;;5056403;28;20549;-83
2021/11/17 14:41:58;;;;;;;7.03;1.73;;;15.60;73.50;;;;;;5039145;28;20038;-81
2021/11/17 14:44:23;;;;;;;9.35;2.15;;;15.60;73.30;;;;;;5053227;28;20032;-86
2021/11/17 14:46:49;;;;;;;6.82;1.63;;;15.40;73.40;;;;;;5052174;28;20021;-90
2021/11/17 14:49:17;;;;;;;6.32;1.38;;;15.30;74.00;;;;;;5057836;28;20017;-89
2021/11/17 14:51:43;;;;;;;6.50;1.45;;;15.30;74.30;;;;;;5058492;28;20048;-88
2021/11/17 14:54:10;;;;;;;9.82;1.75;;;15.30;74.30;;;;;;5056793;28;20053;-88
2021/11/17 14:56:40;;;;;;;7.82;1.83;;;15.40;74.60;;;;;;5057575;28;20028;-89
2021/11/17 14:59:06;;;;;;;8.65;2.20;;;15.30;74.40;;;;;;5053992;28;20047;-88
2021/11/17 15:01:35;;;;;;;4.80;1.38;;;15.20;75.00;;;;;;5055864;28;20075;-89
2021/11/17 15:04:02;;;;;;;6.10;1.58;;;15.00;75.60;;;;;;5057488;28;20021;-91
2021/11/17 15:06:30;;;;;;;6.75;1.42;;;14.90;75.60;;;;;;5060341;28;20479;-90
2021/11/17 15:08:56;;;;;;;8.43;1.98;;;14.80;76.10;;;;;;5057626;28;20021;-89
2021/11/17 15:11:24;;;;;;;4.90;1.50;;;14.80;75.80;;;;;;5056923;28;20110;-88
2021/11/17 15:13:50;;;;;;;3.83;1.08;;;14.70;74.40;;;;;;5057474;28;20548;-90
2021/11/17 15:16:17;;;;;;;6.57;2.30;;;14.70;73.60;;;;;;5058400;28;20112;-89
2021/11/17 15:18:45;;;;;;;5.53;1.58;;;14.80;73.70;;;;;;5056488;28;20554;-87
2021/11/17 15:21:14;;;;;;;14.18;1.83;;;14.80;73.00;;;;;;5055172;28;20025;-87
2021/11/17 15:23:40;;;;;;;5.10;1.30;;;14.70;71.30;;;;;;5037899;28;20101;-87
2021/11/17 15:26:06;;;;;;;10.18;2.15;;;14.70;72.20;;;;;;5039124;28;20034;-87
2021/11/17 15:28:39;;;;;;;7.90;1.88;;;14.70;71.10;;;;;;5057004;28;20094;-87
2021/11/17 15:31:10;;;;;;;7.53;2.40;;;14.60;70.30;;;;;;5053078;28;20043;-88
2021/11/17 15:33:36;;;;;;;9.23;2.13;;;14.60;70.80;;;;;;5055744;28;20047;-87
2021/11/17 15:36:05;;;;;;;7.85;2.00;;;14.50;70.60;;;;;;5054870;28;20400;-86
2021/11/17 15:38:30;;;;;;;7.93;1.73;;;14.50;70.80;;;;;;5057132;28;20021;-87
2021/11/17 15:40:59;;;;;;;8.77;2.00;;;14.30;70.60;;;;;;5055598;28;20025;-87
2021/11/17 15:43:25;;;;;;;12.05;2.40;;;14.30;71.20;;;;;;5053694;28;20025;-84
2021/11/17 15:45:52;;;;;;;6.10;2.17;;;14.20;71.00;;;;;;5055566;28;20454;-87
2021/11/17 15:48:19;;;;;;;6.90;1.80;;;14.20;71.10;;;;;;5057094;28;20068;-88
2021/11/17 15:50:52;;;;;;;5.88;1.90;;;14.20;70.40;;;;;;5054817;28;20575;-88
2021/11/17 15:53:18;;;;;;;6.20;1.80;;;14.10;70.10;;;;;;5056958;28;20028;-88
2021/11/17 15:55:44;;;;;;;7.50;2.03;;;14.10;70.70;;;;;;5055515;28;20048;-88
2021/11/17 15:58:10;;;;;;;5.50;3.08;;;14.10;71.20;;;;;;5056935;28;20077;-88
2021/11/17 16:00:36;;;;;;;9.13;2.15;;;14.00;70.70;;;;;;5055776;28;20521;-88
2021/11/17 16:03:03;;;;;;;8.55;1.92;;;13.90;70.50;;;;;;5051915;28;20028;-88
2021/11/17 16:05:30;;;;;;;9.02;3.45;;;13.90;70.70;;;;;;5055886;28;20032;-88